Time;durP1;ratioP1;P1;durP2;ratioP2;P2;SDS_P1;SDS_P2;PMS_P1;PMS_P2;Temp;Humidity;BMP_temperature;BMP_pressure;BME280_temperature;BME280_humidity;BME280_pressure;Samples;Min_cycle;Max_cycle;Signal;HPM_P1;HPM_P2
2022/07/05 00:00:51;;;;;;;9.30;8.10;;;;;;;17.67;74.51;100262.51;130451;1267;108621;-75
2022/07/05 00:03:57;;;;;;;9.70;8.50;;;;;;;17.72;74.40;100261.82;130390;1267;108775;-75
2022/07/05 00:10:34;;;;;;;8.90;8.00;;;;;;;17.67;74.33;100268.66;129847;1268;108836;-74
2022/07/05 00:13:40;;;;;;;7.80;7.10;;;;;;;17.63;74.15;100274.06;130220;1268;108662;-74
2022/07/05 00:16:45;;;;;;;9.10;8.20;;;;;;;17.58;74.26;100278.81;130285;1267;108942;-77
2022/07/05 00:19:51;;;;;;;9.00;8.10;;;;;;;17.53;74.32;100285.09;130275;1267;107907;-77
2022/07/05 00:22:56;;;;;;;8.80;8.00;;;;;;;17.50;74.45;100285.58;130253;1268;108059;-76
2022/07/05 00:26:01;;;;;;;9.70;8.70;;;;;;;17.55;74.40;100287.89;130207;1268;108818;-76
2022/07/05 00:29:07;;;;;;;11.10;9.10;;;;;;;17.45;74.46;100295.49;130205;1268;108557;-76
2022/07/05 00:32:13;;;;;;;9.50;8.30;;;;;;;17.17;74.83;100303.97;130217;1268;108978;-76
2022/07/05 00:35:18;;;;;;;8.30;7.40;;;;;;;17.14;75.08;100311.41;130209;1268;108812;-71
2022/07/05 00:38:24;;;;;;;8.20;7.40;;;;;;;17.20;75.02;100311.73;130206;1268;109232;-71
2022/07/05 00:41:29;;;;;;;9.20;8.20;;;;;;;17.22;75.00;100312.52;130212;1268;109119;-75
2022/07/05 00:44:36;;;;;;;9.70;8.80;;;;;;;17.24;75.17;100314.14;130105;1268;108952;-77
2022/07/05 00:47:42;;;;;;;10.10;8.00;;;;;;;17.19;75.29;100317.45;130206;1268;108890;-78
2022/07/05 00:50:49;;;;;;;8.80;7.30;;;;;;;17.11;75.29;100312.14;130202;1268;108858;-77
2022/07/05 00:53:54;;;;;;;8.30;7.50;;;;;;;17.09;75.51;100311.15;130043;1268;108760;-78
2022/07/05 00:57:00;;;;;;;8.60;7.80;;;;;;;17.12;75.38;100316.00;130188;1268;108673;-74
2022/07/05 01:00:07;;;;;;;9.80;8.80;;;;;;;17.14;75.62;100318.58;130038;1268;108662;-75
2022/07/05 01:03:13;;;;;;;9.20;8.40;;;;;;;17.15;75.49;100314.11;130154;1268;108794;-74
2022/07/05 01:06:18;;;;;;;9.20;8.20;;;;;;;17.18;75.64;100309.91;130247;1268;108751;-77
2022/07/05 01:09:25;;;;;;;8.90;8.00;;;;;;;17.16;75.61;100306.69;130193;1268;108538;-76
2022/07/05 01:12:30;;;;;;;9.00;7.80;;;;;;;17.11;75.72;100315.77;130219;1268;109073;-77
2022/07/05 01:15:36;;;;;;;9.00;8.10;;;;;;;17.13;75.74;100315.55;130212;1268;108686;-76
2022/07/05 01:18:42;;;;;;;9.80;8.80;;;;;;;17.17;75.84;100316.82;130189;1268;108857;-74
2022/07/05 01:21:49;;;;;;;9.90;8.90;;;;;;;17.24;75.85;100310.65;130168;1268;108771;-75
2022/07/05 01:24:55;;;;;;;8.90;8.10;;;;;;;17.25;76.13;100304.73;130214;1268;108604;-73
2022/07/05 01:28:03;;;;;;;8.10;7.30;;;;;;;17.28;75.90;100307.08;130263;1267;108686;-75
2022/07/05 01:31:09;;;;;;;9.00;7.80;;;;;;;17.29;76.05;100308.61;130177;1268;108993;-74
2022/07/05 01:34:14;;;;;;;9.40;8.50;;;;;;;17.35;76.25;100312.77;130199;1268;108972;-75
2022/07/05 01:37:20;;;;;;;10.20;9.20;;;;;;;17.41;76.04;100325.39;130219;1268;108867;-77
2022/07/05 01:40:25;;;;;;;11.30;9.90;;;;;;;17.45;75.97;100326.54;130228;1268;109165;-76
2022/07/05 01:43:30;;;;;;;10.30;9.30;;;;;;;17.39;76.02;100325.84;130176;1268;108791;-76
2022/07/05 01:46:39;;;;;;;10.20;9.20;;;;;;;17.40;76.32;100320.29;130189;1268;300200;-77
2022/07/05 01:49:47;;;;;;;10.20;9.20;;;;;;;17.40;76.36;100321.19;130199;1270;108898;-77
2022/07/05 01:52:54;;;;;;;11.70;10.50;;;;;;;17.34;76.58;100331.86;130298;1268;108764;-75
2022/07/05 01:56:00;;;;;;;13.60;11.00;;;;;;;17.33;77.65;100331.98;130364;1267;108909;-76
2022/07/05 01:59:06;;;;;;;12.80;11.40;;;;;;;17.27;78.56;100329.35;130253;1267;108678;-75
2022/07/05 02:02:12;;;;;;;12.20;10.70;;;;;;;17.25;80.40;100332.29;130341;1268;108822;-74
2022/07/05 02:05:17;;;;;;;12.10;10.60;;;;;;;17.27;80.10;100334.95;130288;1267;108883;-73
2022/07/05 02:08:29;;;;;;;12.90;11.70;;;;;;;17.31;80.34;100345.18;130446;1267;108793;-75
2022/07/05 02:11:33;;;;;;;;;;;;;;;17.38;80.95;100349.39;130231;1268;108817;-75
2022/07/05 02:14:39;;;;;;;10.70;9.60;;;;;;;17.47;80.44;100351.24;130212;1270;108204;-74
2022/07/05 02:17:47;;;;;;;11.90;10.70;;;;;;;17.58;80.12;100355.81;130223;1269;108751;-73
2022/07/05 02:20:53;;;;;;;13.40;11.20;;;;;;;17.71;80.02;100368.94;130397;1268;108693;-75
2022/07/05 02:23:58;;;;;;;14.90;12.10;;;;;;;17.80;80.39;100377.72;130406;1266;108409;-74
2022/07/05 02:27:07;;;;;;;13.00;10.50;;;;;;;17.83;80.27;100377.21;130418;1267;109055;-71
2022/07/05 02:30:15;;;;;;;12.40;10.10;;;;;;;17.95;80.23;100382.08;130191;1268;108895;-72
2022/07/05 02:33:20;;;;;;;11.10;10.00;;;;;;;18.05;80.17;100383.60;130174;1268;107757;-76
2022/07/05 02:36:26;;;;;;;11.90;10.60;;;;;;;18.17;80.15;100379.96;130211;1268;108908;-73
2022/07/05 02:39:32;;;;;;;13.50;12.10;;;;;;;18.25;80.05;100372.73;130040;1268;107571;-73
2022/07/05 02:42:38;;;;;;;11.90;9.70;;;;;;;18.30;80.28;100364.27;130214;1268;108783;-72
2022/07/05 02:45:44;;;;;;;10.80;9.70;;;;;;;18.31;80.35;100366.86;130435;1268;108866;-74
2022/07/05 02:48:51;;;;;;;13.50;10.60;;;;;;;18.35;80.31;100357.58;130314;1268;108734;-75
2022/07/05 02:51:57;;;;;;;11.60;10.40;;;;;;;18.43;80.34;100356.86;130261;1268;108533;-78
2022/07/05 02:55:02;;;;;;;10.80;9.70;;;;;;;18.36;80.24;100360.27;130225;1268;108983;-74
2022/07/05 02:58:08;;;;;;;9.90;8.90;;;;;;;18.28;80.74;100354.80;130267;1268;108628;-75
2022/07/05 03:01:14;;;;;;;10.00;8.40;;;;;;;18.30;80.59;100349.64;130218;1268;108901;-74
2022/07/05 03:04:20;;;;;;;11.70;9.20;;;;;;;18.32;80.62;100361.01;130308;1267;108672;-76
2022/07/05 03:07:30;;;;;;;10.20;9.20;;;;;;;18.27;81.02;100374.86;130332;1268;109391;-76
2022/07/05 03:10:36;;;;;;;10.00;8.90;;;;;;;18.09;81.11;100373.60;130287;1268;108724;-76
2022/07/05 03:13:43;;;;;;;8.80;7.90;;;;;;;18.03;81.43;100365.69;131382;1268;108824;-75
2022/07/05 03:16:50;;;;;;;9.00;7.80;;;;;;;18.03;81.52;100356.01;130189;1268;107723;-75
2022/07/05 03:19:58;;;;;;;8.70;7.90;;;;;;;18.04;82.40;100351.15;130227;1268;107601;-75
2022/07/05 03:23:04;;;;;;;9.20;8.30;;;;;;;17.95;82.98;100353.63;130186;1268;108619;-75
2022/07/05 03:26:16;;;;;;;8.90;8.00;;;;;;;17.88;82.48;100355.26;130176;1268;108747;-75
2022/07/05 03:29:22;;;;;;;9.70;7.90;;;;;;;17.87;82.80;100358.95;130033;1268;108946;-75
2022/07/05 03:32:28;;;;;;;8.90;8.10;;;;;;;17.85;82.47;100366.95;130239;1268;108828;-75
2022/07/05 03:35:35;;;;;;;9.00;7.90;;;;;;;17.85;82.67;100372.14;130196;1268;108981;-75
2022/07/05 03:38:41;;;;;;;13.60;9.70;;;;;;;17.87;82.45;100374.06;130110;1268;108963;-75
2022/07/05 03:41:47;;;;;;;8.60;7.80;;;;;;;17.91;82.50;100374.88;130210;1268;108810;-75
2022/07/05 03:44:56;;;;;;;8.80;7.90;;;;;;;17.97;82.19;100379.27;130220;1268;108938;-75
2022/07/05 03:48:02;;;;;;;9.50;8.50;;;;;;;18.00;82.11;100378.25;130227;1268;108755;-76
2022/07/05 03:51:09;;;;;;;8.90;8.10;;;;;;;18.05;81.86;100374.42;130172;1268;108669;-76
2022/07/05 03:54:15;;;;;;;9.10;8.30;;;;;;;18.08;81.96;100369.78;130245;1268;108880;-76
2022/07/05 03:57:22;;;;;;;8.70;7.70;;;;;;;18.07;82.36;100369.40;130222;1268;108739;-76
2022/07/05 04:00:28;;;;;;;8.30;7.50;;;;;;;18.08;81.97;100359.48;130222;1268;108863;-75
2022/07/05 04:03:38;;;;;;;8.50;7.50;;;;;;;18.19;81.94;100357.37;130194;1268;108830;-75
2022/07/05 04:06:44;;;;;;;8.30;7.40;;;;;;;18.36;81.71;100363.42;130214;1268;108781;-75
2022/07/05 04:09:49;;;;;;;7.20;6.40;;;;;;;18.52;81.43;100365.07;130051;1268;108712;-75
2022/07/05 04:12:55;;;;;;;7.70;7.00;;;;;;;18.70;81.27;100364.63;130124;1268;108683;-76
2022/07/05 04:16:02;;;;;;;8.30;6.00;;;;;;;18.84;80.92;100359.61;130454;1267;108922;-75
2022/07/05 04:19:07;;;;;;;7.00;5.90;;;;;;;18.93;80.72;100357.52;130391;1268;107683;-75
2022/07/05 04:22:14;;;;;;;8.00;6.10;;;;;;;19.04;80.62;100354.08;130249;1268;107764;-75
2022/07/05 04:25:20;;;;;;;6.50;5.90;;;;;;;19.11;80.30;100351.38;130324;1268;108358;-76
2022/07/05 04:28:31;;;;;;;7.00;6.30;;;;;;;19.19;79.78;100350.77;130343;1267;108772;-76
2022/07/05 04:31:37;;;;;;;6.10;5.50;;;;;;;19.06;79.60;100347.63;130182;1270;108676;-78
2022/07/05 04:34:43;;;;;;;5.60;5.10;;;;;;;19.03;79.80;100345.55;130264;1268;108745;-78
2022/07/05 04:37:50;;;;;;;7.20;4.90;;;;;;;19.09;79.88;100343.55;130284;1268;108782;-79
2022/07/05 04:40:56;;;;;;;5.70;5.10;;;;;;;19.23;79.68;100347.23;130158;1270;108879;-79
2022/07/05 04:44:02;;;;;;;5.80;5.20;;;;;;;19.47;79.55;100348.67;130257;1268;108814;-80
2022/07/05 04:47:08;;;;;;;6.50;5.90;;;;;;;19.79;79.18;100343.70;130219;1268;108711;-79
2022/07/05 04:50:14;;;;;;;5.50;5.00;;;;;;;20.05;78.63;100345.22;130173;1268;108806;-79
2022/07/05 04:53:19;;;;;;;5.80;5.20;;;;;;;20.17;77.83;100341.55;130202;1268;109164;-79
2022/07/05 04:56:25;;;;;;;6.20;5.20;;;;;;;20.29;77.34;100341.29;130207;1268;108796;-79
2022/07/05 04:59:30;;;;;;;5.80;5.30;;;;;;;20.45;77.39;100343.86;130166;1268;108575;-81
2022/07/05 05:02:36;;;;;;;5.70;5.10;;;;;;;20.54;76.71;100347.66;130251;1268;108681;-75
2022/07/05 05:05:41;;;;;;;5.20;4.20;;;;;;;20.64;76.13;100357.85;130235;1268;108918;-79
2022/07/05 05:08:47;;;;;;;4.60;3.90;;;;;;;20.73;76.04;100360.25;130210;1268;109034;-79
2022/07/05 05:11:52;;;;;;;4.20;3.90;;;;;;;20.83;75.38;100369.68;130236;1267;108782;-81
2022/07/05 05:14:58;;;;;;;3.80;3.50;;;;;;;20.76;75.17;100373.63;130412;1268;108795;-81
2022/07/05 05:18:03;;;;;;;4.00;3.50;;;;;;;20.83;74.90;100376.47;130301;1268;108694;-79
2022/07/05 05:21:08;;;;;;;3.90;3.40;;;;;;;20.74;74.00;100372.64;130422;1267;106911;-79
2022/07/05 05:24:14;;;;;;;3.90;3.40;;;;;;;20.80;74.36;100372.02;130399;1267;108894;-79
2022/07/05 05:27:19;;;;;;;3.70;3.40;;;;;;;20.82;74.16;100367.26;130365;1268;108703;-79
2022/07/05 05:30:24;;;;;;;3.80;3.10;;;;;;;20.91;74.33;100369.66;130459;1266;108794;-79
2022/07/05 05:33:30;;;;;;;4.00;3.30;;;;;;;21.09;73.08;100368.04;130379;1268;109305;-79
2022/07/05 05:36:36;;;;;;;5.40;3.50;;;;;;;21.13;73.16;100368.30;130404;1267;108870;-78
2022/07/05 05:39:42;;;;;;;5.90;3.40;;;;;;;21.23;73.15;100376.24;130387;1268;108841;-79
2022/07/05 05:42:47;;;;;;;3.80;3.20;;;;;;;21.29;73.04;100382.43;130366;1267;108814;-79
2022/07/05 05:45:53;;;;;;;5.00;3.40;;;;;;;21.29;72.10;100381.89;130455;1268;108888;-79
2022/07/05 05:48:58;;;;;;;3.60;3.10;;;;;;;21.32;72.71;100387.63;130390;1268;108813;-79
2022/07/05 05:52:12;;;;;;;3.70;3.20;;;;;;;21.45;72.80;100391.20;130243;1268;108740;-83
2022/07/05 05:55:21;;;;;;;3.20;2.80;;;;;;;21.49;72.15;100382.42;130380;1268;107740;-77
2022/07/05 05:58:27;;;;;;;4.50;3.30;;;;;;;21.58;71.74;100382.20;130452;1268;106845;-79
2022/07/05 06:01:33;;;;;;;3.20;3.00;;;;;;;21.58;71.08;100376.02;130233;1269;108767;-78
2022/07/05 06:04:38;;;;;;;3.50;2.80;;;;;;;21.64;71.56;100376.48;130401;1267;108890;-78
2022/07/05 06:07:49;;;;;;;5.20;3.30;;;;;;;21.70;71.38;100373.20;130326;1268;108872;-78
2022/07/05 06:10:55;;;;;;;4.90;3.40;;;;;;;21.81;70.44;100374.85;130484;1266;108674;-78
2022/07/05 06:14:00;;;;;;;5.20;3.30;;;;;;;21.85;69.78;100376.69;130247;1270;108182;-79
2022/07/05 06:17:06;;;;;;;3.80;3.40;;;;;;;21.89;70.00;100385.27;130189;1269;108954;-78
2022/07/05 06:20:15;;;;;;;3.90;3.50;;;;;;;22.02;70.09;100389.27;130381;1268;109707;-79
2022/07/05 06:23:20;;;;;;;5.40;3.80;;;;;;;22.07;69.11;100387.30;130450;1267;108898;-79
2022/07/05 06:26:26;;;;;;;3.80;3.30;;;;;;;22.16;69.55;100389.98;130227;1268;108718;-81
2022/07/05 06:29:31;;;;;;;3.40;3.00;;;;;;;22.37;69.24;100397.56;130347;1268;108857;-78
2022/07/05 06:32:36;;;;;;;4.00;3.50;;;;;;;22.55;69.36;100400.27;130397;1268;108791;-79
2022/07/05 06:35:42;;;;;;;8.50;4.10;;;;;;;22.69;68.83;100397.23;130380;1267;108903;-81
2022/07/05 06:38:47;;;;;;;3.70;3.40;;;;;;;22.77;67.81;100399.55;130411;1268;108816;-81
2022/07/05 06:41:52;;;;;;;3.40;3.10;;;;;;;22.87;68.29;100396.95;130447;1267;108557;-79
2022/07/05 06:44:58;;;;;;;4.00;3.20;;;;;;;22.98;67.54;100391.05;130507;1268;108832;-81
2022/07/05 06:48:05;;;;;;;6.20;3.90;;;;;;;23.04;67.06;100388.41;130468;1267;108645;-81
2022/07/05 06:51:10;;;;;;;4.60;3.60;;;;;;;23.04;67.31;100382.99;130436;1268;108747;-81
2022/07/05 06:54:16;;;;;;;4.00;3.60;;;;;;;23.13;67.29;100385.76;130514;1268;108679;-81
2022/07/05 06:57:22;;;;;;;4.10;3.30;;;;;;;23.26;67.31;100392.38;130250;1268;108804;-79
2022/07/05 07:00:29;;;;;;;4.00;3.20;;;;;;;23.34;66.56;100392.38;130428;1267;108542;-79
2022/07/05 07:03:34;;;;;;;3.80;3.10;;;;;;;23.44;66.88;100392.89;130448;1267;108615;-81
2022/07/05 07:06:40;;;;;;;3.50;2.90;;;;;;;23.57;67.06;100403.33;130341;1268;108522;-80
2022/07/05 07:09:45;;;;;;;3.90;2.90;;;;;;;23.79;66.56;100401.75;130359;1268;108947;-79
2022/07/05 07:12:51;;;;;;;4.20;3.30;;;;;;;23.84;66.36;100398.40;130178;1269;108712;-81
2022/07/05 07:15:57;;;;;;;3.40;3.10;;;;;;;23.91;65.93;100390.30;130190;1269;108978;-81
2022/07/05 07:19:02;;;;;;;3.60;3.20;;;;;;;24.07;65.54;100392.10;130591;1268;108627;-81
2022/07/05 07:22:08;;;;;;;3.30;3.00;;;;;;;24.27;65.27;100391.21;130463;1267;108693;-81
2022/07/05 07:25:13;;;;;;;3.60;3.30;;;;;;;24.36;64.26;100387.35;130414;1268;108757;-79
2022/07/05 07:28:18;;;;;;;3.60;3.00;;;;;;;24.30;62.52;100386.00;130501;1266;108793;-80
2022/07/05 07:31:25;;;;;;;3.90;3.50;;;;;;;24.19;64.09;100387.34;130472;1268;108869;-81
2022/07/05 07:34:31;;;;;;;4.10;3.70;;;;;;;24.13;64.27;100384.36;130495;1267;108694;-79
2022/07/05 07:37:37;;;;;;;3.80;3.40;;;;;;;24.17;64.02;100374.53;130497;1267;108723;-79
2022/07/05 07:40:43;;;;;;;4.60;3.20;;;;;;;24.20;63.61;100373.52;130387;1266;108550;-81
2022/07/05 07:43:48;;;;;;;4.00;3.10;;;;;;;24.07;62.85;100371.85;130540;1268;108697;-81
2022/07/05 07:46:54;;;;;;;3.50;3.20;;;;;;;24.00;62.97;100372.07;130383;1267;108785;-81
2022/07/05 07:49:59;;;;;;;3.90;3.60;;;;;;;23.96;62.69;100374.82;130421;1268;107741;-81
2022/07/05 07:53:04;;;;;;;4.00;3.10;;;;;;;23.70;62.62;100377.83;130404;1268;108581;-80
2022/07/05 07:56:10;;;;;;;4.20;3.40;;;;;;;23.66;63.85;100375.88;130465;1268;108855;-81
2022/07/05 07:59:16;;;;;;;4.20;3.30;;;;;;;23.98;63.20;100374.05;130420;1266;108705;-81
2022/07/05 08:02:22;;;;;;;4.80;3.50;;;;;;;24.17;63.22;100375.08;130268;1268;109742;-81
2022/07/05 08:05:28;;;;;;;3.40;3.00;;;;;;;24.21;62.96;100382.02;130553;1268;108722;-81
2022/07/05 08:08:33;;;;;;;4.50;3.10;;;;;;;24.27;63.34;100384.87;130406;1266;108720;-81
2022/07/05 08:11:39;;;;;;;3.70;3.40;;;;;;;24.40;63.10;100380.67;130559;1268;108644;-81
2022/07/05 08:14:44;;;;;;;3.80;3.50;;;;;;;24.40;61.88;100382.42;130573;1268;108782;-80
2022/07/05 08:24:37;;;;;;;5.00;3.60;;;;;;;24.13;62.88;100385.02;130409;1268;108733;-81
2022/07/05 08:27:42;;;;;;;3.90;3.40;;;;;;;24.19;61.74;100386.20;130476;1268;108856;-81
2022/07/05 08:30:48;;;;;;;5.10;3.30;;;;;;;24.24;62.23;100389.19;130400;1268;108835;-81
2022/07/05 08:33:53;;;;;;;4.20;3.30;;;;;;;24.38;62.24;100390.61;130455;1267;108860;-81
2022/07/05 08:36:58;;;;;;;3.80;3.10;;;;;;;24.50;61.67;100389.34;130223;1270;109599;-81
2022/07/05 08:40:09;;;;;;;3.40;3.10;;;;;;;24.36;61.91;100387.14;130541;1268;108678;-81
2022/07/05 08:43:16;;;;;;;5.80;3.20;;;;;;;24.21;61.26;100384.75;130457;1268;108601;-82
2022/07/05 08:46:21;;;;;;;4.70;3.40;;;;;;;24.04;61.74;100385.48;130438;1267;108663;-79
2022/07/05 08:49:28;;;;;;;3.50;3.20;;;;;;;23.91;61.26;100384.59;130417;1268;108525;-81
2022/07/05 08:52:34;;;;;;;3.40;3.10;;;;;;;23.88;61.41;100382.52;130577;1267;108923;-82
2022/07/05 08:55:40;;;;;;;4.00;3.10;;;;;;;23.96;61.43;100382.24;130427;1267;108677;-81
2022/07/05 08:58:46;;;;;;;3.80;3.30;;;;;;;24.07;61.11;100385.27;130363;1268;108750;-82
2022/07/05 09:01:53;;;;;;;3.70;3.10;;;;;;;24.12;60.48;100385.88;130329;1268;108695;-81
2022/07/05 09:04:59;;;;;;;3.80;3.20;;;;;;;24.14;61.08;100391.41;130394;1267;108678;-81
2022/07/05 09:08:05;;;;;;;3.60;3.30;;;;;;;24.19;60.29;100392.29;130503;1268;108801;-81
2022/07/05 09:11:12;;;;;;;3.80;3.40;;;;;;;24.25;60.38;100397.20;130530;1267;107765;-81
2022/07/05 09:14:24;;;;;;;4.00;3.60;;;;;;;24.37;60.85;100395.11;130504;1268;108807;-81
2022/07/05 09:17:30;;;;;;;3.70;3.30;;;;;;;24.61;59.52;100395.86;130428;1268;109064;-81
2022/07/05 09:20:35;;;;;;;3.60;3.30;;;;;;;24.72;59.83;100388.75;130492;1268;107715;-81
2022/07/05 09:23:42;;;;;;;3.50;3.10;;;;;;;24.86;59.65;100390.54;130417;1266;108772;-81
2022/07/05 09:26:48;;;;;;;5.10;3.50;;;;;;;25.04;60.13;100390.05;130248;1268;108745;-81
2022/07/05 09:29:57;;;;;;;4.00;3.20;;;;;;;25.11;59.53;100384.83;130345;1269;108930;-81
2022/07/05 09:33:10;;;;;;;3.30;3.00;;;;;;;25.19;58.62;100387.09;130405;1268;108877;-81
2022/07/05 09:36:15;;;;;;;3.60;3.30;;;;;;;25.15;58.98;100388.98;130507;1266;108862;-81
2022/07/05 09:39:37;;;;;;;3.50;2.90;;;;;;;25.40;59.39;100391.30;130427;1268;109040;-81
2022/07/05 09:42:43;;;;;;;3.20;2.90;;;;;;;25.58;58.22;100389.08;130598;1268;108941;-81
2022/07/05 09:45:56;;;;;;;3.40;2.80;;;;;;;25.49;57.78;100388.93;130235;1269;108623;-80
2022/07/05 09:49:02;;;;;;;3.10;2.80;;;;;;;25.33;58.03;100385.29;130512;1267;108714;-80
2022/07/05 09:52:08;;;;;;;4.30;2.90;;;;;;;25.30;58.08;100386.50;130425;1267;109026;-81
2022/07/05 09:55:16;;;;;;;4.40;2.70;;;;;;;25.10;57.78;100389.67;130554;1268;108632;-81
2022/07/05 09:58:29;;;;;;;2.90;2.70;;;;;;;24.86;57.10;100398.02;130461;1267;108640;-81
2022/07/05 10:01:36;;;;;;;4.00;2.70;;;;;;;24.69;57.92;100394.77;130369;1268;108953;-82
2022/07/05 10:04:41;;;;;;;3.90;2.90;;;;;;;24.74;58.49;100397.30;130426;1268;108668;-81
2022/07/05 10:07:48;;;;;;;4.40;3.10;;;;;;;24.75;57.91;100391.96;130436;1268;109259;-79
2022/07/05 10:10:54;;;;;;;3.40;2.70;;;;;;;24.64;57.52;100394.71;130409;1268;107736;-81
2022/07/05 10:14:04;;;;;;;2.90;2.60;;;;;;;24.55;57.61;100396.38;130383;1267;108970;-81
2022/07/05 10:17:12;;;;;;;3.80;2.60;;;;;;;24.33;57.77;100400.10;130536;1268;107582;-82
2022/07/05 10:20:25;;;;;;;2.70;2.50;;;;;;;24.13;57.22;100400.45;130268;1268;108956;-81
2022/07/05 10:23:31;;;;;;;4.30;2.60;;;;;;;23.99;57.41;100402.70;130535;1268;108658;-81
2022/07/05 10:26:37;;;;;;;3.00;2.50;;;;;;;23.91;57.91;100405.80;130501;1268;108639;-80
2022/07/05 10:29:49;;;;;;;2.70;2.50;;;;;;;23.94;58.03;100400.58;130540;1268;108747;-80
2022/07/05 10:32:55;;;;;;;2.60;2.40;;;;;;;23.94;58.26;100404.77;130525;1268;108240;-80
2022/07/05 10:36:01;;;;;;;4.30;2.40;;;;;;;23.95;58.03;100406.80;130237;1270;108664;-80
2022/07/05 10:39:08;;;;;;;3.30;2.20;;;;;;;23.83;57.64;100410.94;130505;1267;107489;-80
2022/07/05 10:42:15;;;;;;;3.40;2.40;;;;;;;23.72;57.71;100412.79;130550;1267;108788;-80
2022/07/05 10:45:32;;;;;;;2.50;2.30;;;;;;;23.61;57.85;100412.85;130559;1268;108701;-80
2022/07/05 10:48:38;;;;;;;2.60;2.40;;;;;;;23.54;57.82;100414.92;130489;1268;108922;-80
2022/07/05 10:51:44;;;;;;;3.70;2.50;;;;;;;23.58;58.02;100416.05;130348;1268;109221;-81
2022/07/05 10:55:23;;;;;;;2.60;2.40;;;;;;;23.68;57.83;100420.72;130480;1267;108797;-81
2022/07/05 10:58:33;;;;;;;3.20;2.10;;;;;;;23.82;57.78;100410.48;130581;1268;108864;-81
2022/07/05 11:01:42;;;;;;;3.90;2.20;;;;;;;23.93;57.95;100406.16;130593;1268;107255;-81
2022/07/05 11:04:48;;;;;;;2.30;2.10;;;;;;;24.08;57.76;100404.70;130290;1268;107701;-81
2022/07/05 11:08:04;;;;;;;2.20;2.00;;;;;;;23.99;57.43;100400.89;130676;1268;109740;-81
2022/07/05 11:11:14;;;;;;;3.80;2.30;;;;;;;23.85;57.53;100402.18;130649;1265;108728;-81
2022/07/05 11:14:39;;;;;;;2.60;2.40;;;;;;;23.75;57.59;100401.42;130603;1267;108512;-81
2022/07/05 11:17:45;;;;;;;3.30;2.30;;;;;;;23.74;57.56;100402.52;130625;1267;109031;-81
2022/07/05 11:20:51;;;;;;;2.50;2.00;;;;;;;23.70;57.91;100402.22;130504;1268;108736;-81
2022/07/05 11:24:20;;;;;;;2.80;2.50;;;;;;;23.71;58.15;100401.82;130544;1267;108761;-81
2022/07/05 11:27:26;;;;;;;2.30;2.10;;;;;;;23.50;58.42;100412.48;130276;1268;108691;-81
2022/07/05 11:30:44;;;;;;;2.70;2.30;;;;;;;23.26;59.19;100405.95;130556;1266;108702;-81
2022/07/05 11:33:54;;;;;;;4.60;2.50;;;;;;;23.13;59.42;100401.97;130568;1268;108727;-80
2022/07/05 11:37:24;;;;;;;3.90;2.40;;;;;;;23.03;59.82;100398.41;130467;1268;108734;-80
2022/07/05 11:40:32;;;;;;;4.40;2.30;;;;;;;22.94;60.19;100394.84;130521;1268;108938;-80
2022/07/05 11:43:38;;;;;;;3.10;2.40;;;;;;;22.99;60.62;100388.95;130501;1268;108643;-81
2022/07/05 11:46:45;;;;;;;4.40;2.70;;;;;;;23.09;60.25;100391.47;130484;1268;108127;-81
2022/07/05 11:49:57;;;;;;;4.60;2.80;;;;;;;23.17;60.02;100395.27;130554;1267;108693;-81
2022/07/05 11:53:03;;;;;;;3.40;2.30;;;;;;;23.33;59.90;100394.25;130557;1266;109659;-80
2022/07/05 11:56:09;;;;;;;3.90;2.20;;;;;;;23.44;60.20;100391.42;130475;1268;108693;-80
2022/07/05 11:59:22;;;;;;;3.30;2.00;;;;;;;23.52;59.52;100392.83;130502;1267;108864;-80
2022/07/05 12:02:27;;;;;;;5.10;2.80;;;;;;;23.53;59.60;100383.40;130798;1268;108829;-81
2022/07/05 12:05:34;;;;;;;4.10;2.30;;;;;;;23.57;60.20;100379.36;130529;1268;108744;-82
2022/07/05 12:08:39;;;;;;;3.60;2.20;;;;;;;23.55;60.48;100382.69;130291;1270;108876;-81
2022/07/05 12:15:16;;;;;;;2.80;2.40;;;;;;;23.04;60.66;100397.03;130541;1268;108728;-81
2022/07/05 12:18:21;;;;;;;3.50;2.50;;;;;;;22.72;61.20;100391.55;130563;1267;110038;-81
2022/07/05 12:21:27;;;;;;;3.40;2.60;;;;;;;22.52;61.67;100398.97;130458;1267;108659;-80
2022/07/05 12:24:33;;;;;;;4.20;2.70;;;;;;;22.36;61.43;100390.92;130550;1268;107695;-81
2022/07/05 12:27:41;;;;;;;3.00;2.70;;;;;;;22.24;61.59;100387.98;130492;1268;108779;-80
2022/07/05 12:30:46;;;;;;;4.00;2.40;;;;;;;22.18;61.50;100389.26;130546;1268;108837;-80
2022/07/05 12:33:53;;;;;;;2.90;2.30;;;;;;;22.14;61.19;100391.82;130257;1268;108756;-80
2022/07/05 12:36:58;;;;;;;7.10;2.20;;;;;;;22.11;60.82;100396.44;130334;1270;108583;-80
2022/07/05 12:40:09;;;;;;;2.60;2.40;;;;;;;22.02;61.05;100398.84;130482;1267;108637;-80
2022/07/05 12:43:17;;;;;;;6.30;2.50;;;;;;;21.95;61.28;100394.72;130519;1268;108702;-80
2022/07/05 12:46:36;;;;;;;3.70;2.30;;;;;;;21.84;61.81;100395.09;130534;1267;108863;-81
2022/07/05 13:00:06;;;;;;;2.40;2.20;;;;;;;21.60;63.35;100409.98;129139;1280;108923;-80
2022/07/05 13:03:12;;;;;;;2.50;2.20;;;;;;;21.56;63.85;100417.23;129107;1280;108934;-79
2022/07/05 13:06:17;;;;;;;3.90;2.30;;;;;;;21.43;64.39;100416.77;128869;1280;478029;-79
2022/07/05 13:09:35;;;;;;;3.60;2.30;;;;;;;21.32;65.01;100421.02;129333;1279;109571;-78
2022/07/05 13:12:41;;;;;;;5.10;2.40;;;;;;;21.22;65.19;100419.96;129259;1280;108766;-78
2022/07/05 13:15:46;;;;;;;2.40;2.00;;;;;;;21.11;65.46;100416.83;129107;1280;108730;-78
2022/07/05 13:18:51;;;;;;;2.70;2.20;;;;;;;21.03;65.48;100419.88;129207;1278;108933;-78
2022/07/05 13:21:57;;;;;;;3.80;2.30;;;;;;;20.91;66.21;100427.00;129195;1280;108950;-78
2022/07/05 13:25:03;;;;;;;2.60;2.00;;;;;;;20.78;66.21;100426.66;129183;1279;108865;-78
2022/07/05 13:28:09;;;;;;;2.80;2.10;;;;;;;20.71;66.29;100430.15;129349;1280;108769;-78
2022/07/05 13:31:19;;;;;;;5.60;2.30;;;;;;;20.69;66.80;100431.36;129325;1280;108888;-78
2022/07/05 13:34:26;;;;;;;7.10;2.30;;;;;;;20.64;66.85;100434.09;129241;1280;108947;-77
2022/07/05 13:37:31;;;;;;;3.70;2.40;;;;;;;20.57;66.91;100438.85;129137;1280;108158;-78
2022/07/05 13:40:36;;;;;;;4.20;2.40;;;;;;;20.53;67.45;100442.45;129105;1279;108801;-78
2022/07/05 13:43:44;;;;;;;2.80;2.00;;;;;;;20.53;67.17;100444.13;129093;1280;108866;-78
2022/07/05 13:46:49;;;;;;;3.10;2.50;;;;;;;20.59;66.98;100450.77;129494;1277;109773;-79
2022/07/05 13:50:31;;;;;;;2.50;2.00;;;;;;;20.70;67.21;100463.81;129531;1277;108924;-78
2022/07/05 13:53:21;;;;;;;3.00;2.00;;;;;;;20.87;66.90;100478.64;129615;1277;107107;-78
2022/07/05 13:56:26;;;;;;;2.90;2.00;;;;;;;21.09;66.62;100493.06;129696;1277;108798;-78
2022/07/05 13:59:32;;;;;;;2.20;1.70;;;;;;;21.27;66.62;100502.70;129648;1277;108728;-78
2022/07/05 14:02:38;;;;;;;2.60;1.70;;;;;;;21.37;66.62;100498.58;129570;1277;108757;-78
2022/07/05 14:05:44;;;;;;;2.90;2.40;;;;;;;21.43;66.61;100493.33;129683;1277;107754;-79
2022/07/05 14:08:50;;;;;;;3.10;2.40;;;;;;;21.29;66.83;100491.70;129637;1277;109752;-78
2022/07/05 14:11:55;;;;;;;3.20;2.60;;;;;;;21.01;67.62;100491.09;129479;1277;109168;-78
2022/07/05 14:15:01;;;;;;;2.90;2.70;;;;;;;20.97;68.12;100491.66;129505;1276;108791;-78
2022/07/05 14:18:06;;;;;;;4.20;3.80;;;;;;;21.07;68.28;100493.52;129484;1277;108577;-78
2022/07/05 14:21:14;;;;;;;3.70;3.30;;;;;;;21.11;68.38;100489.62;129538;1277;108539;-78
2022/07/05 14:24:20;;;;;;;3.30;3.00;;;;;;;20.82;68.88;100478.86;129600;1276;107208;-78
2022/07/05 14:27:25;;;;;;;4.00;2.90;;;;;;;20.41;68.34;100476.00;129591;1276;108890;-77
2022/07/05 14:30:31;;;;;;;2.90;2.70;;;;;;;20.22;67.62;100471.26;129650;1276;108780;-78